Terminal Aerodrome Forecast
Issued by NWS

Home | Current Version | Previous Version | Text Only | Print | Product List | Glossary On
Versions: 1 2 3 4 5 6 7 8 9 10 11 12 13 14 15 16
000
FTUS45 KTFX 191128
TAFBZN
TAF
KBZN 191128Z 1912/2018 VRB05KT P6SM FEW060 SCT150
     FM192000 09010KT P6SM FEW060 SCT120
     FM200900 VRB05KT P6SM FEW030 FEW180=

USA.gov is the U.S. government's official web portal to all federal, state and local government web resources and services.